createdAt,value
2022-09-09T00:00:41.128Z,13.01
2022-09-09T00:03:15.551Z,12.99
2022-09-09T00:05:46.061Z,12.88
2022-09-09T00:08:25.835Z,13.10
2022-09-09T00:10:59.945Z,13.03
2022-09-09T00:13:52.825Z,12.96
2022-09-09T00:16:25.131Z,13.04
2022-09-09T00:19:33.760Z,12.91
2022-09-09T00:22:19.508Z,13.00
2022-09-09T00:24:50.147Z,13.00
2022-09-09T00:27:28.080Z,13.00
2022-09-09T00:30:01.157Z,13.07
2022-09-09T00:32:31.142Z,13.03
2022-09-09T00:35:06.471Z,13.14
2022-09-09T00:37:36.045Z,13.14
2022-09-09T00:40:17.813Z,13.06
2022-09-09T00:42:45.607Z,13.00
2022-09-09T00:45:15.096Z,13.03
2022-09-09T00:47:43.373Z,13.08
2022-09-09T00:50:09.906Z,12.92
2022-09-09T00:53:11.652Z,12.87
2022-09-09T00:55:46.019Z,13.01
2022-09-09T00:58:13.245Z,12.95
2022-09-09T01:01:12.139Z,13.06
2022-09-09T01:03:54.900Z,12.97
2022-09-09T01:06:32.815Z,13.04
2022-09-09T01:09:18.942Z,13.07
2022-09-09T01:12:11.176Z,13.07
2022-09-09T01:14:37.737Z,12.99
2022-09-09T01:17:44.337Z,13.00
2022-09-09T01:20:48.751Z,12.88
2022-09-09T01:23:35.304Z,12.92
2022-09-09T01:26:30.456Z,12.60
2022-09-09T01:29:00.425Z,12.66
2022-09-09T01:31:53.766Z,12.77
2022-09-09T01:34:21.238Z,12.86
2022-09-09T01:37:00.955Z,12.89
2022-09-09T01:39:28.543Z,12.82
2022-09-09T01:42:01.211Z,12.73
2022-09-09T01:44:29.309Z,12.75
2022-09-09T01:46:56.422Z,12.63
2022-09-09T01:49:23.851Z,12.79
2022-09-09T01:51:54.793Z,12.79
2022-09-09T01:54:32.211Z,12.69
2022-09-09T01:57:11.061Z,12.61
2022-09-09T01:59:51.312Z,12.67
2022-09-09T02:02:31.392Z,12.72
2022-09-09T02:05:23.161Z,12.59
2022-09-09T02:07:56.375Z,12.60
2022-09-09T02:10:54.583Z,12.51
2022-09-09T02:13:35.443Z,12.63
2022-09-09T02:16:08.973Z,12.57
2022-09-09T02:18:48.658Z,12.61
2022-09-09T02:21:18.179Z,12.61
2022-09-09T02:23:47.874Z,12.51
2022-09-09T02:26:21.183Z,12.39
2022-09-09T02:28:52.049Z,12.52
2022-09-09T02:31:22.872Z,12.54
2022-09-09T02:34:02.331Z,12.47
2022-09-09T02:36:34.323Z,12.44
2022-09-09T02:39:01.864Z,12.36
2022-09-09T02:41:34.730Z,12.40
2022-09-09T02:44:02.218Z,12.14
2022-09-09T02:46:55.086Z,12.26
2022-09-09T02:49:41.146Z,12.44
2022-09-09T02:52:28.289Z,12.36
2022-09-09T02:55:00.637Z,12.27
2022-09-09T02:57:31.630Z,12.31
2022-09-09T03:00:02.526Z,12.31
2022-09-09T03:02:31.295Z,12.23
2022-09-09T03:05:03.237Z,12.14
2022-09-09T03:07:29.787Z,12.17
2022-09-09T03:09:56.278Z,12.15
2022-09-09T03:12:25.916Z,12.20
2022-09-09T03:14:52.358Z,12.10
2022-09-09T03:17:19.095Z,12.13
2022-09-09T03:19:53.393Z,12.04
2022-09-09T03:22:20.485Z,11.85
2022-09-09T03:24:47.865Z,11.88
2022-09-09T03:27:18.359Z,11.95
2022-09-09T03:29:45.919Z,11.83
2022-09-09T03:32:18.466Z,11.87
2022-09-09T03:34:45.230Z,12.05
2022-09-09T03:37:13.753Z,12.10
2022-09-09T03:39:40.307Z,12.04
2022-09-09T03:42:08.527Z,12.02
2022-09-09T03:44:35.251Z,12.12
2022-09-09T03:47:01.678Z,12.10
2022-09-09T03:49:31.944Z,12.16
2022-09-09T03:51:59.379Z,12.16
2022-09-09T03:54:26.482Z,12.15
2022-09-09T03:56:53.096Z,12.09
2022-09-09T03:59:22.256Z,12.13
2022-09-09T04:01:49.423Z,12.23
2022-09-09T04:04:16.253Z,12.27
2022-09-09T04:06:42.815Z,12.16
2022-09-09T04:09:09.321Z,12.19
2022-09-09T04:11:35.859Z,11.89
2022-09-09T04:14:02.386Z,11.74
2022-09-09T04:16:30.501Z,11.96
2022-09-09T04:18:57.090Z,11.81
2022-09-09T04:21:24.174Z,11.68
2022-09-09T04:23:50.714Z,11.51
2022-09-09T04:26:17.851Z,11.71
2022-09-09T04:28:45.425Z,11.81
2022-09-09T04:31:26.182Z,11.93
2022-09-09T04:33:55.979Z,11.85
2022-09-09T04:36:22.950Z,11.93
2022-09-09T04:38:52.256Z,11.99
2022-09-09T04:41:18.823Z,11.95
2022-09-09T04:43:48.310Z,11.96
2022-09-09T04:46:18.100Z,11.95
2022-09-09T04:48:45.099Z,11.99
2022-09-09T04:51:14.252Z,11.97
2022-09-09T04:53:41.495Z,12.00
2022-09-09T04:56:14.682Z,12.03
2022-09-09T04:58:46.577Z,11.98
2022-09-09T05:01:15.579Z,11.94
2022-09-09T05:03:46.397Z,11.90
2022-09-09T05:06:21.533Z,11.86
2022-09-09T05:08:50.585Z,11.96
2022-09-09T05:11:25.195Z,12.00
2022-09-09T05:13:54.489Z,11.94
2022-09-09T05:16:22.289Z,11.88
2022-09-09T05:18:51.531Z,11.83
2022-09-09T05:21:21.386Z,11.81
2022-09-09T05:23:48.265Z,11.93
2022-09-09T05:26:17.984Z,11.99
2022-09-09T05:28:47.140Z,11.99
2022-09-09T05:31:15.617Z,11.98
2022-09-09T05:33:44.764Z,11.96
2022-09-09T05:36:17.609Z,12.02
2022-09-09T05:38:46.421Z,12.15
2022-09-09T05:41:16.626Z,12.31
2022-09-09T05:43:45.422Z,12.46
2022-09-09T05:46:23.916Z,12.45
2022-09-09T05:48:53.215Z,12.53
2022-09-09T05:51:25.123Z,12.68
2022-09-09T05:53:52.414Z,12.69
2022-09-09T05:56:22.933Z,12.80
2022-09-09T05:58:50.331Z,13.04
2022-09-09T06:01:21.694Z,12.84
2022-09-09T06:03:50.695Z,12.98
2022-09-09T06:06:22.576Z,12.94
2022-09-09T06:08:52.411Z,12.97
2022-09-09T06:11:24.782Z,13.02
2022-09-09T06:13:55.446Z,13.02
2022-09-09T06:16:25.022Z,12.77
2022-09-09T06:18:52.444Z,12.62
2022-09-09T06:21:21.308Z,12.70
2022-09-09T06:23:48.746Z,12.75
2022-09-09T06:26:26.734Z,12.76
2022-09-09T06:28:55.795Z,12.79
2022-09-09T06:31:29.756Z,12.57
2022-09-09T06:33:59.723Z,12.77
2022-09-09T06:36:34.714Z,12.81
2022-09-09T06:39:01.791Z,12.88
2022-09-09T06:41:33.933Z,12.71
2022-09-09T06:44:02.504Z,12.71
2022-09-09T06:46:36.565Z,12.95
2022-09-09T06:49:03.703Z,13.18
2022-09-09T06:51:33.073Z,13.33
2022-09-09T06:54:00.935Z,13.47
2022-09-09T06:56:38.927Z,13.29
2022-09-09T06:59:10.219Z,13.66
2022-09-09T07:01:42.174Z,13.53
2022-09-09T07:04:12.319Z,13.60
2022-09-09T07:06:44.219Z,13.83
2022-09-09T07:09:16.569Z,13.83
2022-09-09T07:11:48.657Z,13.95
2022-09-09T07:14:16.927Z,13.88
2022-09-09T07:16:47.667Z,13.81
2022-09-09T07:19:16.382Z,13.77
2022-09-09T07:21:44.558Z,13.94
2022-09-09T07:24:14.952Z,13.97
2022-09-09T07:26:42.990Z,13.95
2022-09-09T07:29:09.514Z,14.12
2022-09-09T07:31:39.563Z,14.40
2022-09-09T07:34:10.154Z,14.59
2022-09-09T07:36:39.522Z,14.85
2022-09-09T07:39:14.107Z,14.93
2022-09-09T07:41:46.994Z,14.92
2022-09-09T07:44:17.970Z,15.40
2022-09-09T07:46:46.703Z,15.62
2022-09-09T07:49:22.895Z,15.27
2022-09-09T07:51:54.340Z,15.52
2022-09-09T07:54:21.574Z,15.32
2022-09-09T07:56:50.859Z,15.59
2022-09-09T07:59:17.874Z,15.72
2022-09-09T08:01:49.803Z,15.93
2022-09-09T08:04:20.725Z,16.05
2022-09-09T08:06:54.732Z,16.01
2022-09-09T08:09:26.032Z,15.99
2022-09-09T08:11:52.869Z,16.22
2022-09-09T08:14:20.013Z,16.14
2022-09-09T08:16:48.872Z,15.89
2022-09-09T08:19:18.878Z,15.99
2022-09-09T08:21:46.961Z,15.90
2022-09-09T08:24:15.684Z,16.32
2022-09-09T08:26:48.429Z,16.61
2022-09-09T08:29:16.257Z,16.22
2022-09-09T08:31:47.407Z,16.82
2022-09-09T08:34:14.895Z,16.55
2022-09-09T08:36:46.042Z,16.89
2022-09-09T08:39:16.058Z,16.81
2022-09-09T08:42:10.327Z,16.59
2022-09-09T08:45:01.463Z,16.60
2022-09-09T08:47:43.544Z,16.62
2022-09-09T08:50:16.233Z,16.69
2022-09-09T08:53:14.242Z,16.17
2022-09-09T08:55:59.789Z,16.05
2022-09-09T08:58:49.992Z,16.44
2022-09-09T09:01:52.214Z,16.75
2022-09-09T09:04:28.692Z,17.03
2022-09-09T09:07:01.612Z,17.39
2022-09-09T09:10:18.955Z,17.41
2022-09-09T09:12:53.983Z,17.65
2022-09-09T09:15:28.321Z,17.82
2022-09-09T09:17:58.525Z,18.28
2022-09-09T09:20:42.646Z,18.49
2022-09-09T09:23:19.943Z,19.05
2022-09-09T09:25:47.074Z,18.58
2022-09-09T09:28:22.757Z,18.74
2022-09-09T09:30:55.395Z,19.22
2022-09-09T09:33:37.697Z,19.08
2022-09-09T09:36:07.150Z,18.59
2022-09-09T09:41:43.815Z,19.51
2022-09-09T09:44:28.981Z,19.49
2022-09-09T09:47:09.424Z,19.33
2022-09-09T09:49:36.854Z,19.18
2022-09-09T09:52:05.487Z,19.57
2022-09-09T09:54:39.846Z,19.97
2022-09-09T09:57:15.849Z,19.93
2022-09-09T09:59:43.897Z,20.10
2022-09-09T10:02:40.897Z,20.01
2022-09-09T10:05:27.500Z,20.34
2022-09-09T10:08:03.979Z,20.31
2022-09-09T10:10:48.054Z,20.43
2022-09-09T10:13:33.431Z,20.63
2022-09-09T10:16:18.457Z,21.01
2022-09-09T10:19:02.303Z,21.01
2022-09-09T10:21:34.953Z,20.46
2022-09-09T10:24:10.343Z,21.16
2022-09-09T10:26:52.385Z,21.25
2022-09-09T10:29:38.700Z,21.05
2022-09-09T10:32:29.607Z,20.91
2022-09-09T10:35:09.676Z,20.86
2022-09-09T10:37:44.951Z,21.02
2022-09-09T10:40:31.465Z,21.13
2022-09-09T10:43:40.208Z,21.67
2022-09-09T10:46:25.078Z,21.29
2022-09-09T10:49:01.891Z,20.71
2022-09-09T10:51:42.519Z,21.05
2022-09-09T10:54:30.977Z,20.99
2022-09-09T10:57:04.229Z,20.62
2022-09-09T10:59:36.482Z,20.80
2022-09-09T11:02:27.709Z,21.23
2022-09-09T11:04:59.945Z,20.50
2022-09-09T11:07:36.928Z,20.74
2022-09-09T11:10:14.854Z,21.02
2022-09-09T11:12:44.315Z,21.45
2022-09-09T11:15:24.846Z,21.81
2022-09-09T11:17:56.119Z,21.71
2022-09-09T11:20:22.764Z,21.10
2022-09-09T11:22:59.030Z,21.47
2022-09-09T11:25:58.067Z,21.20
2022-09-09T11:29:04.687Z,21.48
2022-09-09T11:31:56.950Z,21.98
2022-09-09T11:34:39.512Z,21.68
2022-09-09T11:37:27.235Z,21.61
2022-09-09T11:40:02.621Z,21.53
2022-09-09T11:42:29.342Z,21.59
2022-09-09T11:44:57.626Z,21.21
2022-09-09T11:47:32.300Z,21.21
2022-09-09T11:50:17.138Z,20.90
2022-09-09T11:52:48.377Z,21.25
2022-09-09T11:55:33.788Z,21.81
2022-09-09T11:58:02.583Z,22.05
2022-09-09T12:00:39.096Z,21.75
2022-09-09T12:03:07.428Z,21.91
2022-09-09T12:05:46.888Z,22.45
2022-09-09T12:08:24.511Z,22.74
2022-09-09T12:11:00.619Z,22.30
2022-09-09T12:13:28.245Z,21.79
2022-09-09T12:15:59.628Z,21.96
2022-09-09T12:18:35.264Z,22.35
2022-09-09T12:21:10.021Z,22.79
2022-09-09T12:23:50.746Z,22.65
2022-09-09T12:26:33.771Z,23.08
2022-09-09T12:29:13.033Z,22.80
2022-09-09T12:32:11.063Z,23.01
2022-09-09T12:34:45.460Z,21.84
2022-09-09T12:37:36.335Z,22.18
2022-09-09T12:40:21.955Z,22.08
2022-09-09T12:42:48.795Z,22.30
2022-09-09T12:45:26.174Z,21.81
2022-09-09T12:47:58.969Z,22.03
2022-09-09T12:50:34.238Z,22.10
2022-09-09T12:53:11.171Z,22.35
2022-09-09T12:55:39.918Z,22.40
2022-09-09T12:58:08.049Z,22.89
2022-09-09T13:00:35.843Z,22.50
2022-09-09T13:03:15.570Z,22.91
2022-09-09T13:05:42.064Z,22.66
2022-09-09T13:08:12.722Z,22.67
2022-09-09T13:10:55.449Z,22.24
2022-09-09T13:13:28.164Z,23.18
2022-09-09T13:16:00.049Z,23.40
2022-09-09T13:18:31.084Z,23.36
2022-09-09T13:21:00.977Z,23.24
2022-09-09T13:23:33.244Z,22.95
2022-09-09T13:26:22.448Z,22.89
2022-09-09T13:28:49.630Z,22.11
2022-09-09T13:31:22.164Z,22.12
2022-09-09T13:33:48.838Z,21.67
2022-09-09T13:36:15.399Z,21.78
2022-09-09T13:38:55.985Z,21.91
2022-09-09T13:41:24.659Z,22.29
2022-09-09T13:43:53.022Z,23.06
2022-09-09T13:46:25.512Z,22.96
2022-09-09T13:48:56.919Z,22.87
2022-09-09T13:51:38.622Z,23.36
2022-09-09T13:54:07.236Z,23.33
2022-09-09T13:56:36.150Z,23.28
2022-09-09T13:59:04.245Z,23.27
2022-09-09T14:01:30.990Z,23.11
2022-09-09T14:03:57.634Z,22.58
2022-09-09T14:06:24.813Z,23.10
2022-09-09T14:08:52.073Z,23.01
2022-09-09T14:11:19.266Z,22.64
2022-09-09T14:13:45.712Z,22.04
2022-09-09T14:16:12.212Z,22.18
2022-09-09T14:18:39.802Z,21.97
2022-09-09T14:21:06.273Z,21.62
2022-09-09T14:23:33.310Z,21.66
2022-09-09T14:25:59.710Z,21.73
2022-09-09T14:28:52.024Z,21.50
2022-09-09T14:31:14.462Z,21.11
2022-09-09T14:33:41.841Z,21.46
2022-09-09T14:36:08.425Z,21.42
2022-09-09T14:38:40.423Z,21.27
2022-09-09T14:41:07.924Z,21.21
2022-09-09T14:43:34.464Z,21.22
2022-09-09T14:46:07.776Z,21.49
2022-09-09T14:48:34.958Z,21.71
2022-09-09T14:51:20.518Z,21.67
2022-09-09T14:53:47.683Z,21.62
2022-09-09T14:56:17.006Z,21.59
2022-09-09T14:58:44.404Z,21.49
2022-09-09T15:01:13.653Z,21.49
2022-09-09T15:03:41.789Z,21.03
2022-09-09T15:06:10.692Z,21.15
2022-09-09T15:08:42.287Z,20.76
2022-09-09T15:11:11.290Z,20.71
2022-09-09T15:13:39.292Z,20.44
2022-09-09T15:16:14.395Z,20.43
2022-09-09T15:18:43.691Z,20.03
2022-09-09T15:21:15.594Z,20.05
2022-09-09T15:23:42.932Z,19.98
2022-09-09T15:26:10.447Z,19.26
2022-09-09T15:28:38.927Z,18.03
2022-09-09T15:31:08.467Z,17.63
2022-09-09T15:33:35.540Z,16.91
2022-09-09T15:36:02.233Z,17.09
2022-09-09T15:38:28.662Z,17.21
2022-09-09T15:40:56.418Z,17.75
2022-09-09T15:43:23.127Z,18.00
2022-09-09T15:45:57.730Z,18.13
2022-09-09T15:48:31.406Z,17.84
2022-09-09T15:51:10.864Z,17.54
2022-09-09T15:53:45.894Z,18.03
2022-09-09T15:56:12.264Z,18.21
2022-09-09T15:58:38.828Z,18.39
2022-09-09T16:01:05.317Z,18.38
2022-09-09T16:03:40.691Z,18.12
2022-09-09T16:06:10.467Z,17.92
2022-09-09T16:08:39.880Z,17.80
2022-09-09T16:11:23.822Z,17.60
2022-09-09T16:13:52.067Z,17.49
2022-09-09T16:16:22.906Z,17.34
2022-09-09T16:18:52.926Z,17.43
2022-09-09T16:21:20.989Z,17.49
2022-09-09T16:23:49.807Z,17.57
2022-09-09T16:26:18.148Z,17.53
2022-09-09T16:28:44.682Z,17.48
2022-09-09T16:31:15.376Z,17.50
2022-09-09T16:33:42.607Z,17.31
2022-09-09T16:36:11.290Z,17.27
2022-09-09T16:38:38.300Z,17.12
2022-09-09T16:41:06.689Z,17.10
2022-09-09T16:43:34.295Z,17.07
2022-09-09T16:46:02.036Z,16.99
2022-09-09T16:48:34.434Z,16.94
2022-09-09T16:51:06.820Z,16.93
2022-09-09T16:53:34.171Z,16.98
2022-09-09T16:56:12.228Z,17.09
2022-09-09T16:58:39.032Z,16.99
2022-09-09T17:01:06.802Z,17.08
2022-09-09T17:03:33.556Z,17.12
2022-09-09T17:06:03.004Z,16.96
2022-09-09T17:08:33.903Z,17.05
2022-09-09T17:11:00.351Z,16.99
2022-09-09T17:13:27.342Z,17.16
2022-09-09T17:15:53.799Z,17.18
2022-09-09T17:18:21.548Z,17.04
2022-09-09T17:20:48.035Z,16.89
2022-09-09T17:23:16.238Z,16.79
2022-09-09T17:25:42.870Z,16.65
2022-09-09T17:28:09.296Z,16.58
2022-09-09T17:30:37.506Z,16.50
2022-09-09T17:33:05.244Z,16.35
2022-09-09T17:35:32.177Z,16.13
2022-09-09T17:37:58.954Z,15.96
2022-09-09T17:40:25.493Z,15.87
2022-09-09T17:42:52.059Z,15.66
2022-09-09T17:45:18.490Z,15.54
2022-09-09T17:47:45.553Z,15.42
2022-09-09T17:50:13.665Z,15.34
2022-09-09T17:52:41.563Z,15.34
2022-09-09T17:55:10.329Z,15.29
2022-09-09T17:57:36.782Z,15.36
2022-09-09T18:00:07.764Z,15.24
2022-09-09T18:02:39.033Z,15.17
2022-09-09T18:05:06.243Z,15.16
2022-09-09T18:07:33.560Z,15.13
2022-09-09T18:10:00.125Z,15.17
2022-09-09T18:12:28.978Z,15.08
2022-09-09T18:14:55.806Z,15.02
2022-09-09T18:17:22.299Z,15.09
2022-09-09T18:19:49.732Z,15.10
2022-09-09T18:22:16.111Z,14.99
2022-09-09T18:24:45.368Z,14.96
2022-09-09T18:27:11.829Z,14.98
2022-09-09T18:29:38.289Z,14.92
2022-09-09T18:32:04.911Z,14.90
2022-09-09T18:34:31.413Z,14.78
2022-09-09T18:36:58.435Z,14.82
2022-09-09T18:39:28.434Z,14.79
2022-09-09T18:42:00.292Z,14.76
2022-09-09T18:44:30.143Z,14.76
2022-09-09T18:46:56.677Z,14.74
2022-09-09T18:49:24.498Z,14.87
2022-09-09T18:51:51.151Z,14.83
2022-09-09T18:54:29.548Z,14.83
2022-09-09T18:56:56.091Z,14.87
2022-09-09T18:59:23.948Z,14.82
2022-09-09T19:01:52.182Z,14.85
2022-09-09T19:04:19.633Z,14.79
2022-09-09T19:06:48.294Z,14.84
2022-09-09T19:16:30.159Z,14.73
2022-09-09T19:19:01.916Z,14.68
2022-09-09T19:21:31.364Z,14.72
2022-09-09T19:24:02.126Z,14.81
2022-09-09T19:26:32.034Z,14.82
2022-09-09T19:28:59.968Z,14.74
2022-09-09T19:31:30.995Z,14.85
2022-09-09T19:33:58.079Z,14.87
2022-09-09T19:36:27.802Z,14.87
2022-09-09T19:38:55.602Z,14.88
2022-09-09T19:41:24.913Z,14.81
2022-09-09T19:43:57.377Z,14.76
2022-09-09T19:46:23.979Z,14.64
2022-09-09T19:48:50.591Z,14.69
2022-09-09T19:51:20.273Z,14.65
2022-09-09T19:53:53.049Z,14.49
2022-09-09T19:56:23.039Z,14.53
2022-09-09T19:58:50.004Z,14.51
2022-09-09T20:01:18.097Z,14.47
2022-09-09T20:03:47.791Z,14.45
2022-09-09T20:06:16.991Z,14.40
2022-09-09T20:08:46.057Z,14.37
2022-09-09T20:11:14.256Z,14.38
2022-09-09T20:13:41.863Z,14.26
2022-09-09T20:16:14.026Z,14.26
2022-09-09T20:18:43.255Z,14.22
2022-09-09T20:21:17.644Z,14.12
2022-09-09T20:23:44.347Z,14.10
2022-09-09T20:26:13.345Z,14.08
2022-09-09T20:28:42.245Z,14.06
2022-09-09T20:31:14.499Z,14.06
2022-09-09T20:33:42.578Z,14.09
2022-09-09T20:36:10.477Z,14.01
2022-09-09T20:38:41.734Z,14.09
2022-09-09T20:41:11.358Z,14.10
2022-09-09T20:43:37.831Z,14.05
2022-09-09T20:46:04.479Z,14.06
2022-09-09T20:48:34.495Z,14.09
2022-09-09T20:51:05.563Z,14.04
2022-09-09T20:53:33.226Z,13.96
2022-09-09T20:56:04.182Z,13.96
2022-09-09T20:58:33.494Z,13.87
2022-09-09T21:01:00.980Z,13.81
2022-09-09T21:03:33.650Z,13.76
2022-09-09T21:06:00.382Z,13.74
2022-09-09T21:08:27.825Z,13.65
2022-09-09T21:10:54.474Z,13.65
2022-09-09T21:13:21.605Z,13.67
2022-09-09T21:15:48.651Z,13.62
2022-09-09T21:18:15.383Z,13.46
2022-09-09T21:20:43.324Z,13.49
2022-09-09T21:23:11.315Z,13.56
2022-09-09T21:25:37.977Z,13.54
2022-09-09T21:28:05.616Z,13.65
2022-09-09T21:30:40.551Z,13.60
2022-09-09T21:33:10.674Z,13.69
2022-09-09T21:35:39.446Z,13.74
2022-09-09T21:38:07.232Z,13.76
2022-09-09T21:40:38.251Z,13.72
2022-09-09T21:43:11.528Z,13.80
2022-09-09T21:45:39.122Z,13.82
2022-09-09T21:48:11.131Z,13.73
2022-09-09T21:50:38.658Z,13.59
2022-09-09T21:53:05.291Z,13.68
2022-09-09T21:55:35.065Z,13.70
2022-09-09T21:58:01.522Z,13.70
2022-09-09T22:02:22.320Z,13.74
2022-09-09T22:04:49.520Z,13.71
2022-09-09T22:07:17.116Z,13.81
2022-09-09T22:09:43.773Z,13.73
2022-09-09T22:12:10.277Z,13.74
2022-09-09T22:14:37.320Z,13.84
2022-09-09T22:17:05.361Z,13.84
2022-09-09T22:19:32.022Z,13.85
2022-09-09T22:21:58.570Z,13.85
2022-09-09T22:24:27.526Z,13.75
2022-09-09T22:26:55.755Z,13.68
2022-09-09T22:29:22.982Z,13.65
2022-09-09T22:31:50.046Z,13.55
2022-09-09T22:34:18.228Z,13.67
2022-09-09T22:36:46.072Z,13.69
2022-09-09T22:39:12.613Z,13.65
2022-09-09T22:41:39.372Z,13.59
2022-09-09T22:44:07.441Z,13.58
2022-09-09T22:46:34.166Z,13.58
2022-09-09T22:49:03.120Z,13.51
2022-09-09T22:51:29.802Z,13.56
2022-09-09T22:53:57.792Z,13.50
2022-09-09T22:56:24.315Z,13.52
2022-09-09T22:58:55.667Z,13.60
2022-09-09T23:01:25.730Z,13.65
2022-09-09T23:03:54.172Z,13.69
2022-09-09T23:06:23.460Z,13.67
2022-09-09T23:08:59.523Z,13.66
2022-09-09T23:11:31.108Z,13.65
2022-09-09T23:14:00.629Z,13.57
2022-09-09T23:16:33.779Z,13.56
2022-09-09T23:19:01.017Z,13.49
2022-09-09T23:21:29.348Z,13.39
2022-09-09T23:23:57.272Z,13.35
2022-09-09T23:26:25.294Z,13.33
2022-09-09T23:28:52.824Z,13.21
2022-09-09T23:31:22.388Z,13.27
2022-09-09T23:33:49.287Z,13.28
2022-09-09T23:36:19.149Z,13.28
2022-09-09T23:38:46.031Z,13.18
2022-09-09T23:41:21.214Z,13.16
2022-09-09T23:43:49.173Z,13.14
2022-09-09T23:46:20.248Z,13.19
2022-09-09T23:48:51.651Z,13.20
2022-09-09T23:51:23.579Z,13.17
2022-09-09T23:53:52.973Z,13.08
2022-09-09T23:56:24.399Z,13.04
2022-09-09T23:58:53.136Z,12.90
